Time;durP1;ratioP1;P1;durP2;ratioP2;P2;SDS_P1;SDS_P2;PMS_P1;PMS_P2;Temp;Humidity;BMP_temperature;BMP_pressure;BME280_temperature;BME280_humidity;BME280_pressure;Samples;Min_cycle;Max_cycle;Signal;HPM_P1;HPM_P2
2022/08/29 00:00:56;;;;;;;10.32;6.82;;;29.70;62.40;;;;;;5056550;28;20103;-76
2022/08/29 00:03:22;;;;;;;10.45;7.30;;;29.60;62.60;;;;;;5054960;28;20032;-78
2022/08/29 00:05:48;;;;;;;8.98;7.20;;;29.50;62.60;;;;;;5054813;28;20025;-78
2022/08/29 00:08:14;;;;;;;9.65;7.30;;;29.50;62.60;;;;;;5056394;28;20428;-78
2022/08/29 00:10:40;;;;;;;8.85;7.70;;;29.40;62.80;;;;;;5056534;28;20040;-84
2022/08/29 00:13:08;;;;;;;9.77;7.22;;;29.30;63.10;;;;;;5056347;28;20027;-80
2022/08/29 00:15:34;;;;;;;9.75;7.72;;;29.50;63.10;;;;;;5056461;28;20031;-77
2022/08/29 00:18:00;;;;;;;8.88;7.10;;;29.10;63.90;;;;;;5056196;28;20021;-92
2022/08/29 00:20:29;;;;;;;10.60;7.78;;;29.00;63.80;;;;;;5055584;28;20040;-78
2022/08/29 00:22:55;;;;;;;10.15;7.53;;;29.10;63.70;;;;;;5055589;28;20032;-82
2022/08/29 00:25:21;;;;;;;9.85;7.97;;;29.20;63.90;;;;;;5057308;28;20029;-84
2022/08/29 00:27:47;;;;;;;11.10;7.65;;;29.10;63.80;;;;;;5056185;28;20032;-79
2022/08/29 00:30:14;;;;;;;10.40;8.25;;;29.10;64.10;;;;;;5055326;28;20036;-83
2022/08/29 00:32:40;;;;;;;10.57;8.45;;;29.10;63.80;;;;;;5055029;28;20025;-80
2022/08/29 00:35:13;;;;;;;9.88;8.13;;;29.00;64.40;;;;;;5055936;28;20029;-85
2022/08/29 00:37:39;;;;;;;10.07;8.48;;;29.00;64.20;;;;;;5056389;28;20037;-78
2022/08/29 00:40:08;;;;;;;11.00;7.53;;;28.90;64.60;;;;;;5056077;28;20064;-79
2022/08/29 00:42:34;;;;;;;9.82;7.72;;;29.00;64.60;;;;;;5054724;28;20334;-79
2022/08/29 00:45:01;;;;;;;9.45;7.38;;;28.90;64.40;;;;;;5054702;28;20056;-85
2022/08/29 00:47:31;;;;;;;10.52;8.73;;;28.80;65.20;;;;;;5053818;28;20017;-80
2022/08/29 00:49:57;;;;;;;;;;;28.60;65.60;;;;;;5055027;28;20052;-80
2022/08/29 00:52:32;;;;;;;12.38;8.25;;;28.40;65.90;;;;;;5054491;28;19966;-80
2022/08/29 00:55:02;;;;;;;9.43;7.47;;;28.20;66.40;;;;;;5056017;28;20476;-81
2022/08/29 00:57:30;;;;;;;9.98;7.78;;;28.20;66.40;;;;;;5054521;28;20384;-77
2022/08/29 00:59:56;;;;;;;9.63;7.57;;;28.20;66.70;;;;;;5054590;28;20514;-90
2022/08/29 01:02:22;;;;;;;9.95;7.70;;;28.20;66.70;;;;;;5055363;28;20021;-78
2022/08/29 01:04:48;;;;;;;9.98;7.93;;;28.10;66.90;;;;;;5055321;28;20017;-81
2022/08/29 01:07:14;;;;;;;10.50;8.15;;;28.30;66.70;;;;;;5055507;28;20024;-79
2022/08/29 01:09:43;;;;;;;11.30;8.13;;;28.40;66.20;;;;;;5055756;28;20024;-83
2022/08/29 01:12:15;;;;;;;9.43;7.65;;;28.60;66.10;;;;;;5055389;28;20369;-84
2022/08/29 01:15:00;;;;;;;12.23;7.78;;;28.50;66.20;;;;;;5054379;28;20029;-79
2022/08/29 01:17:31;;;;;;;9.55;7.72;;;28.40;66.20;;;;;;5053720;28;20017;-86
2022/08/29 01:20:22;;;;;;;8.52;6.88;;;28.40;66.30;;;;;;5055228;28;20480;-86
2022/08/29 01:23:08;;;;;;;11.18;7.70;;;28.20;66.90;;;;;;5033063;28;20045;-83
2022/08/29 01:25:43;;;;;;;9.05;7.05;;;28.10;66.70;;;;;;5016667;28;20128;-79
2022/08/29 01:28:20;;;;;;;8.95;7.97;;;28.20;66.90;;;;;;5016895;28;20044;-78
2022/08/29 01:31:02;;;;;;;9.27;7.40;;;28.20;66.70;;;;;;5049680;28;20381;-78
2022/08/29 01:33:37;;;;;;;9.45;7.38;;;28.10;67.00;;;;;;5032987;28;20037;-79
2022/08/29 01:36:04;;;;;;;12.35;6.95;;;27.80;67.40;;;;;;5015939;28;20064;-82
2022/08/29 01:38:29;;;;;;;8.15;6.97;;;27.70;67.80;;;;;;5016168;28;20124;-77
2022/08/29 01:40:57;;;;;;;11.13;8.95;;;27.80;67.70;;;;;;5015826;28;20052;-79
2022/08/29 01:43:25;;;;;;;9.50;7.80;;;27.70;67.90;;;;;;5049048;28;20470;-81
2022/08/29 01:45:51;;;;;;;10.77;8.02;;;27.80;67.40;;;;;;5015903;28;20033;-81
2022/08/29 01:48:18;;;;;;;8.85;7.38;;;27.80;67.70;;;;;;5032750;28;20021;-80
2022/08/29 01:50:45;;;;;;;9.40;7.30;;;27.70;67.90;;;;;;5015986;28;20526;-79
2022/08/29 01:53:11;;;;;;;10.70;7.45;;;27.80;67.70;;;;;;5015791;28;20080;-81
2022/08/29 01:55:38;;;;;;;9.35;7.38;;;27.90;67.10;;;;;;5016022;28;20047;-88
2022/08/29 01:58:06;;;;;;;10.48;8.50;;;28.00;67.00;;;;;;5015629;28;20480;-82
2022/08/29 02:00:32;;;;;;;9.75;8.75;;;28.00;66.80;;;;;;5048770;28;20045;-78
2022/08/29 02:03:00;;;;;;;10.75;9.27;;;27.90;67.00;;;;;;5053122;28;20107;-84
2022/08/29 02:05:27;;;;;;;12.68;11.48;;;27.80;67.10;;;;;;5054661;28;20479;-78
2022/08/29 02:07:53;;;;;;;10.38;8.05;;;27.80;67.40;;;;;;5054244;28;20024;-79
2022/08/29 02:10:19;;;;;;;12.45;10.43;;;27.60;67.60;;;;;;5053296;28;20036;-81
2022/08/29 02:12:44;;;;;;;9.13;7.75;;;27.80;67.60;;;;;;5052884;28;20025;-80
2022/08/29 02:15:12;;;;;;;9.73;7.68;;;27.90;66.90;;;;;;5053828;28;20083;-80
2022/08/29 02:17:37;;;;;;;11.13;8.25;;;28.20;66.50;;;;;;5054443;28;20355;-84
2022/08/29 02:20:07;;;;;;;9.85;8.57;;;28.20;66.10;;;;;;5052728;28;20033;-83
2022/08/29 02:22:33;;;;;;;10.57;8.10;;;28.20;66.30;;;;;;5053665;28;20033;-80
2022/08/29 02:24:58;;;;;;;10.80;8.48;;;28.20;66.40;;;;;;5069230;28;20041;-79
2022/08/29 02:27:24;;;;;;;10.38;7.60;;;28.30;66.20;;;;;;5053641;28;20419;-91
2022/08/29 02:29:51;;;;;;;10.77;8.85;;;28.40;66.30;;;;;;5053883;28;20045;-77
2022/08/29 02:32:17;;;;;;;10.10;8.60;;;28.30;66.00;;;;;;5053433;28;20027;-79
2022/08/29 02:34:44;;;;;;;9.70;8.57;;;28.30;66.00;;;;;;5052452;28;20025;-78
2022/08/29 02:37:09;;;;;;;10.40;8.90;;;28.30;66.00;;;;;;5053533;28;20111;-76
2022/08/29 02:39:35;;;;;;;9.82;7.93;;;28.20;66.20;;;;;;5053259;28;20043;-87
2022/08/29 02:42:02;;;;;;;9.20;8.07;;;28.30;65.90;;;;;;5052136;28;20107;-82
2022/08/29 02:44:28;;;;;;;11.45;9.00;;;28.30;65.90;;;;;;5052172;28;20096;-83
2022/08/29 02:46:53;;;;;;;10.32;8.27;;;28.20;66.20;;;;;;5053277;28;20021;-89
2022/08/29 02:49:19;;;;;;;10.50;8.50;;;28.10;66.40;;;;;;5053380;28;20087;-78
2022/08/29 02:51:45;;;;;;;11.02;8.80;;;28.20;65.90;;;;;;5068610;28;20028;-78
2022/08/29 02:54:11;;;;;;;9.68;8.15;;;28.10;66.20;;;;;;5052016;28;20056;-77
2022/08/29 02:56:38;;;;;;;10.02;8.75;;;28.10;66.30;;;;;;5053567;28;20082;-77
2022/08/29 02:59:04;;;;;;;12.00;9.38;;;28.10;66.30;;;;;;5053103;28;20048;-78
2022/08/29 03:01:30;;;;;;;10.35;8.70;;;28.20;66.00;;;;;;5053013;28;20027;-82
2022/08/29 03:03:56;;;;;;;10.38;9.00;;;28.20;65.80;;;;;;5051748;28;20025;-77
2022/08/29 03:06:22;;;;;;;13.98;9.15;;;28.20;65.80;;;;;;5068450;28;20074;-90
2022/08/29 03:08:49;;;;;;;10.27;9.20;;;28.30;65.50;;;;;;5051825;28;20025;-79
2022/08/29 03:11:16;;;;;;;10.82;8.77;;;28.40;65.30;;;;;;5052484;28;20017;-77
2022/08/29 03:13:42;;;;;;;11.18;8.43;;;28.40;65.40;;;;;;5051829;28;20115;-80
2022/08/29 03:16:08;;;;;;;10.20;8.32;;;28.40;65.30;;;;;;5053255;28;20104;-80
2022/08/29 03:18:34;;;;;;;11.18;9.10;;;28.50;65.10;;;;;;5051761;28;20032;-80
2022/08/29 03:21:01;;;;;;;10.63;8.80;;;28.40;65.30;;;;;;5053056;28;20061;-90
2022/08/29 03:23:27;;;;;;;9.82;8.80;;;28.40;65.40;;;;;;5053060;28;20033;-84
2022/08/29 03:25:54;;;;;;;11.88;8.73;;;28.40;65.10;;;;;;5052999;28;20431;-89
2022/08/29 03:28:20;;;;;;;10.10;9.00;;;28.30;65.40;;;;;;5052786;28;20453;-79
2022/08/29 03:30:47;;;;;;;11.00;8.68;;;28.20;65.60;;;;;;5051724;28;20024;-81
2022/08/29 03:33:12;;;;;;;10.45;9.35;;;27.90;66.20;;;;;;5051265;28;20017;-77
2022/08/29 03:35:38;;;;;;;11.90;9.20;;;28.00;65.70;;;;;;5051618;28;20036;-78
2022/08/29 03:38:04;;;;;;;11.93;9.73;;;28.10;65.80;;;;;;5051400;28;20066;-79
2022/08/29 03:40:30;;;;;;;12.57;9.07;;;27.90;66.30;;;;;;5052654;28;20084;-80
2022/08/29 03:42:56;;;;;;;11.43;9.68;;;27.90;66.20;;;;;;5051436;28;20025;-80
2022/08/29 03:45:22;;;;;;;12.20;9.70;;;27.90;66.30;;;;;;5068083;28;20025;-88
2022/08/29 03:47:50;;;;;;;11.40;8.60;;;27.80;66.70;;;;;;5052669;28;20040;-80
2022/08/29 03:50:18;;;;;;;10.68;9.25;;;27.80;66.60;;;;;;5051825;28;20502;-77
2022/08/29 03:52:44;;;;;;;11.35;9.32;;;27.80;66.50;;;;;;5051631;28;20032;-82
2022/08/29 03:55:12;;;;;;;11.18;9.55;;;27.70;66.70;;;;;;5052491;28;20025;-76
2022/08/29 03:57:37;;;;;;;12.30;9.98;;;27.50;66.90;;;;;;5053202;28;20021;-79
2022/08/29 04:00:11;;;;;;;13.98;10.40;;;27.60;67.00;;;;;;5053089;28;20333;-79
2022/08/29 04:02:37;;;;;;;11.27;9.88;;;27.50;66.40;;;;;;5051231;28;20025;-78
2022/08/29 04:05:06;;;;;;;12.90;9.82;;;27.60;66.80;;;;;;5052537;28;20473;-85
2022/08/29 04:07:41;;;;;;;13.35;9.90;;;27.60;67.20;;;;;;5052343;28;20017;-77
2022/08/29 04:10:10;;;;;;;14.15;10.70;;;27.50;66.90;;;;;;5052551;28;20025;-86
2022/08/29 04:12:36;;;;;;;14.90;10.93;;;27.60;67.00;;;;;;5052592;28;20064;-77
2022/08/29 04:15:04;;;;;;;12.52;10.40;;;27.60;66.90;;;;;;5051257;28;20549;-84
2022/08/29 04:17:30;;;;;;;13.75;11.07;;;27.50;67.30;;;;;;5051006;28;20025;-80
2022/08/29 04:19:56;;;;;;;13.07;11.32;;;27.30;66.80;;;;;;5052242;28;20082;-77
2022/08/29 04:22:21;;;;;;;13.85;11.68;;;27.20;67.40;;;;;;5053637;28;20045;-77
2022/08/29 04:24:47;;;;;;;17.77;10.32;;;27.20;67.30;;;;;;5071493;28;20029;-78
2022/08/29 04:27:13;;;;;;;12.27;10.80;;;27.40;67.40;;;;;;5054812;28;20033;-83
2022/08/29 04:29:39;;;;;;;12.23;10.43;;;27.70;66.70;;;;;;5055904;28;20033;-83
2022/08/29 04:32:04;;;;;;;14.18;11.43;;;27.90;66.10;;;;;;5054457;28;20017;-78
2022/08/29 04:34:30;;;;;;;12.23;9.70;;;28.00;65.30;;;;;;5055957;28;20068;-80
2022/08/29 04:36:58;;;;;;;11.70;10.50;;;28.10;65.50;;;;;;5054994;28;20021;-79
2022/08/29 04:39:24;;;;;;;13.50;11.07;;;28.10;65.90;;;;;;5071209;28;20040;-81
2022/08/29 04:41:49;;;;;;;10.77;9.50;;;28.10;65.80;;;;;;5055436;28;20029;-88
2022/08/29 04:44:15;;;;;;;14.05;10.68;;;28.20;65.60;;;;;;5054828;28;20025;-78
2022/08/29 04:46:41;;;;;;;12.80;10.00;;;27.90;65.90;;;;;;5055849;28;20383;-89
2022/08/29 04:49:07;;;;;;;13.55;10.00;;;27.90;66.20;;;;;;5054537;28;20079;-83
2022/08/29 04:51:34;;;;;;;11.50;10.23;;;27.90;66.00;;;;;;5055898;28;20029;-77
2022/08/29 04:54:00;;;;;;;13.43;9.70;;;28.10;65.50;;;;;;5055468;28;20021;-77
2022/08/29 04:56:26;;;;;;;12.60;9.88;;;28.20;65.50;;;;;;5053927;28;20476;-78
2022/08/29 04:58:52;;;;;;;12.52;9.63;;;28.20;65.30;;;;;;5071069;28;20028;-86
2022/08/29 05:01:20;;;;;;;12.38;10.15;;;28.10;65.90;;;;;;5054203;28;20128;-84
2022/08/29 05:03:47;;;;;;;14.50;10.50;;;27.80;66.10;;;;;;5055334;28;20383;-79
2022/08/29 05:06:15;;;;;;;12.65;10.32;;;27.80;66.60;;;;;;5054530;28;20548;-82
2022/08/29 05:08:42;;;;;;;12.30;9.90;;;27.60;66.30;;;;;;5055390;28;20053;-88
2022/08/29 05:11:11;;;;;;;12.60;10.05;;;27.60;66.30;;;;;;5054103;28;20064;-83
2022/08/29 05:13:37;;;;;;;11.60;9.77;;;27.70;66.50;;;;;;5055634;28;20476;-80
2022/08/29 05:17:32;;;;;;;11.27;10.07;;;27.70;66.20;;;;;;5087125;27;1324008;-82
2022/08/29 05:19:58;;;;;;;12.07;9.25;;;27.90;66.00;;;;;;5111181;28;20036;-82
2022/08/29 05:22:23;;;;;;;13.75;10.52;;;28.10;65.70;;;;;;5093602;28;20035;-78
2022/08/29 05:24:50;;;;;;;12.57;10.15;;;28.00;65.90;;;;;;5092927;28;20077;-93
2022/08/29 05:27:21;;;;;;;11.93;10.20;;;28.30;65.40;;;;;;5092877;28;20060;-79
2022/08/29 05:29:48;;;;;;;10.82;9.73;;;28.50;65.10;;;;;;5095293;28;20025;-88
2022/08/29 05:32:16;;;;;;;11.85;8.73;;;28.80;64.60;;;;;;5111378;28;20027;-81
2022/08/29 05:34:43;;;;;;;10.90;9.38;;;28.80;64.50;;;;;;5112040;28;20020;-78
2022/08/29 05:37:13;;;;;;;12.20;9.80;;;28.60;64.60;;;;;;5092502;28;20112;-81
2022/08/29 05:39:40;;;;;;;10.82;9.70;;;28.30;65.30;;;;;;5111008;28;20031;-92
2022/08/29 05:42:07;;;;;;;14.70;9.77;;;28.20;65.80;;;;;;5110651;28;20035;-81
2022/08/29 05:44:35;;;;;;;11.20;9.73;;;28.30;64.80;;;;;;5110842;28;20063;-79
2022/08/29 05:47:05;;;;;;;9.82;8.40;;;28.30;65.20;;;;;;5110889;28;20027;-84
2022/08/29 05:49:30;;;;;;;11.43;9.30;;;28.40;65.00;;;;;;5110972;28;20526;-84
2022/08/29 05:51:59;;;;;;;13.68;9.77;;;28.30;65.20;;;;;;5093308;28;20114;-81
2022/08/29 05:54:25;;;;;;;10.25;9.15;;;28.00;66.00;;;;;;5092615;28;20149;-94
2022/08/29 05:56:51;;;;;;;11.55;9.07;;;28.00;66.10;;;;;;5092348;28;20128;-83
2022/08/29 05:59:17;;;;;;;9.70;8.70;;;27.90;66.10;;;;;;5110969;28;20054;-79
2022/08/29 06:01:44;;;;;;;11.95;9.75;;;28.00;66.60;;;;;;5109996;28;20435;-95
2022/08/29 06:04:10;;;;;;;10.60;8.23;;;28.10;66.80;;;;;;5093690;28;20027;-81
2022/08/29 06:06:38;;;;;;;10.88;8.50;;;28.30;65.70;;;;;;5110487;28;20390;-79
2022/08/29 06:09:03;;;;;;;13.57;9.65;;;28.20;65.60;;;;;;5092046;28;20028;-83
2022/08/29 06:11:31;;;;;;;10.80;9.32;;;28.20;66.00;;;;;;5110673;28;20026;-89
2022/08/29 06:13:58;;;;;;;13.00;9.85;;;28.10;65.90;;;;;;5092255;28;20025;-83
2022/08/29 06:16:25;;;;;;;11.70;8.90;;;28.10;66.50;;;;;;5091756;28;20052;-87
2022/08/29 06:18:52;;;;;;;11.63;8.57;;;28.30;65.90;;;;;;5110414;28;20027;-90
2022/08/29 06:21:18;;;;;;;11.10;8.40;;;28.40;65.60;;;;;;5110546;28;20101;-89
2022/08/29 06:23:44;;;;;;;11.35;8.95;;;28.70;65.30;;;;;;5109724;28;20116;-88
2022/08/29 06:26:11;;;;;;;11.85;8.95;;;28.80;64.80;;;;;;5091972;28;20024;-82
2022/08/29 06:28:39;;;;;;;11.60;8.48;;;28.80;64.50;;;;;;5080295;28;20027;-88
2022/08/29 06:31:27;;;;;;;10.73;8.60;;;28.70;64.60;;;;;;5078190;28;20032;-85
2022/08/29 06:33:56;;;;;;;10.48;8.10;;;28.90;64.80;;;;;;5097020;28;20443;-80
2022/08/29 06:36:24;;;;;;;10.30;8.98;;;28.80;64.70;;;;;;5096056;28;20040;-89
2022/08/29 06:38:50;;;;;;;10.15;8.77;;;28.80;64.90;;;;;;5096854;28;20028;-82
2022/08/29 06:41:17;;;;;;;14.90;9.18;;;28.80;64.60;;;;;;5077965;28;20031;-86
2022/08/29 06:43:43;;;;;;;11.85;9.50;;;29.00;64.20;;;;;;5077623;28;20111;-84
2022/08/29 06:46:29;;;;;;;13.48;9.18;;;29.00;64.30;;;;;;5077669;28;20024;-81
2022/08/29 06:48:57;;;;;;;10.90;8.82;;;29.00;64.50;;;;;;5089601;28;20166;-81
2022/08/29 06:51:24;;;;;;;9.30;8.32;;;29.10;64.20;;;;;;5077631;28;20024;-89
2022/08/29 06:53:49;;;;;;;10.05;8.82;;;29.40;63.80;;;;;;5078257;28;20432;-84
2022/08/29 06:56:15;;;;;;;9.65;8.52;;;29.50;63.30;;;;;;5095699;28;20036;-91
2022/08/29 06:58:41;;;;;;;10.95;8.18;;;29.20;63.40;;;;;;5095615;28;20012;-78
2022/08/29 07:01:13;;;;;;;9.75;8.75;;;29.20;64.00;;;;;;5095535;28;20024;-83
2022/08/29 07:03:40;;;;;;;11.63;7.85;;;29.20;64.00;;;;;;5076945;28;20055;-88
2022/08/29 07:06:06;;;;;;;18.00;8.07;;;29.40;63.70;;;;;;5077343;28;20024;-86
2022/08/29 07:08:32;;;;;;;13.15;7.90;;;29.60;63.70;;;;;;5095090;28;20520;-82
2022/08/29 07:10:59;;;;;;;10.48;8.20;;;29.60;63.40;;;;;;5095286;28;20573;-79
2022/08/29 07:13:24;;;;;;;10.93;8.02;;;29.60;63.10;;;;;;5077349;28;20020;-80
2022/08/29 07:15:50;;;;;;;11.13;8.15;;;29.40;64.00;;;;;;5077039;28;20537;-82
2022/08/29 07:18:16;;;;;;;10.02;7.65;;;29.20;64.00;;;;;;5095114;28;20016;-88
2022/08/29 07:20:42;;;;;;;9.18;8.18;;;29.10;64.40;;;;;;5095114;28;20424;-85
2022/08/29 07:23:08;;;;;;;10.00;7.72;;;29.40;64.20;;;;;;5095586;28;20020;-79
2022/08/29 07:25:34;;;;;;;8.82;7.30;;;29.60;63.50;;;;;;5076971;28;20028;-79
2022/08/29 07:28:03;;;;;;;9.57;7.72;;;29.90;63.00;;;;;;5076818;28;20072;-87
2022/08/29 07:30:29;;;;;;;8.40;7.28;;;30.00;62.80;;;;;;5095147;28;20027;-92
2022/08/29 07:32:54;;;;;;;11.13;7.25;;;29.90;62.90;;;;;;5095236;28;20024;-79
2022/08/29 07:35:20;;;;;;;10.18;7.72;;;30.10;62.70;;;;;;5095007;28;20041;-80
2022/08/29 07:37:46;;;;;;;9.45;7.47;;;30.10;62.40;;;;;;5094724;28;20050;-88
2022/08/29 07:40:16;;;;;;;10.90;7.65;;;29.90;62.80;;;;;;5093178;28;20390;-85
2022/08/29 07:42:42;;;;;;;9.55;8.48;;;29.80;63.00;;;;;;5076568;28;20051;-79
2022/08/29 07:45:10;;;;;;;9.52;7.47;;;29.80;63.20;;;;;;5094806;28;20016;-82
2022/08/29 07:47:36;;;;;;;8.73;7.68;;;30.10;62.60;;;;;;5076113;28;20062;-80
2022/08/29 07:50:05;;;;;;;10.95;8.38;;;30.40;61.90;;;;;;5076128;28;20081;-83
2022/08/29 07:52:31;;;;;;;8.80;7.07;;;30.70;61.90;;;;;;5076470;28;20020;-91
2022/08/29 07:54:57;;;;;;;8.88;6.95;;;31.00;61.30;;;;;;5094591;28;20047;-88
2022/08/29 07:57:23;;;;;;;8.52;7.25;;;31.20;60.90;;;;;;5076456;28;20032;-85
2022/08/29 07:59:49;;;;;;;9.57;7.45;;;31.40;60.80;;;;;;5095226;28;20031;-90
2022/08/29 08:02:15;;;;;;;10.68;7.30;;;31.40;60.40;;;;;;5076201;28;20036;-83
2022/08/29 08:04:42;;;;;;;10.98;7.00;;;31.50;60.40;;;;;;5076430;28;20489;-84
2022/08/29 08:07:09;;;;;;;8.20;7.07;;;31.50;60.40;;;;;;5095401;28;20028;-85
2022/08/29 08:09:35;;;;;;;10.00;6.88;;;31.50;60.60;;;;;;5076379;28;20036;-83
2022/08/29 08:12:01;;;;;;;8.55;7.15;;;31.30;60.20;;;;;;5094368;28;20020;-87
2022/08/29 08:14:27;;;;;;;8.82;6.85;;;31.10;60.50;;;;;;5076735;28;20028;-82
2022/08/29 08:16:53;;;;;;;8.48;6.07;;;31.30;60.60;;;;;;5093959;28;20052;-81
2022/08/29 08:19:19;;;;;;;8.40;7.25;;;31.00;61.30;;;;;;5094079;28;20020;-86
2022/08/29 08:21:45;;;;;;;10.90;7.30;;;31.10;61.00;;;;;;5076146;28;20034;-87
2022/08/29 08:24:10;;;;;;;7.55;6.05;;;31.30;61.40;;;;;;5076204;28;20044;-88
2022/08/29 08:26:36;;;;;;;7.28;6.03;;;31.30;60.70;;;;;;5076532;28;20024;-83
2022/08/29 08:29:02;;;;;;;8.73;6.70;;;31.40;61.00;;;;;;5093956;28;20478;-85
2022/08/29 08:31:28;;;;;;;6.93;5.97;;;31.70;60.80;;;;;;5094134;28;20487;-90
2022/08/29 08:33:55;;;;;;;9.15;7.32;;;31.90;60.50;;;;;;5094257;28;20035;-79
2022/08/29 08:36:24;;;;;;;6.95;5.93;;;32.00;60.20;;;;;;5093017;28;20032;-85
2022/08/29 08:38:52;;;;;;;7.93;6.18;;;31.60;60.00;;;;;;5076012;28;20024;-83
2022/08/29 08:41:49;;;;;;;7.65;5.88;;;31.30;61.00;;;;;;5093890;28;20035;-89
2022/08/29 08:44:33;;;;;;;7.00;5.82;;;31.60;61.10;;;;;;5076163;28;20548;-85
2022/08/29 08:47:04;;;;;;;7.38;5.82;;;31.80;60.20;;;;;;5093918;28;20052;-88
2022/08/29 08:49:39;;;;;;;7.82;6.20;;;31.90;60.50;;;;;;5094383;28;20047;-90
2022/08/29 08:52:12;;;;;;;6.65;5.90;;;32.10;60.60;;;;;;5076058;28;20479;-88
2022/08/29 08:55:19;;;;;;;13.50;6.03;;;32.00;60.50;;;;;;5093808;28;20028;-86
2022/08/29 08:58:16;;;;;;;6.57;5.60;;;32.00;60.10;;;;;;4976114;28;20104;-85
2022/08/29 09:00:46;;;;;;;7.65;6.25;;;31.70;60.70;;;;;;4991944;28;20429;-89
2022/08/29 09:03:33;;;;;;;8.27;6.75;;;31.50;61.10;;;;;;4976133;28;20480;-80
2022/08/29 09:06:14;;;;;;;8.00;5.60;;;31.80;61.20;;;;;;4975909;28;20026;-81
2022/08/29 09:09:06;;;;;;;7.78;6.22;;;32.00;61.30;;;;;;4992416;28;20037;-88
2022/08/29 09:11:54;;;;;;;6.75;5.50;;;31.90;60.50;;;;;;4918429;29;20036;-91
2022/08/29 09:14:55;;;;;;;7.03;5.28;;;32.00;60.30;;;;;;4919640;29;20032;-78
2022/08/29 09:17:47;;;;;;;6.70;5.80;;;32.10;60.80;;;;;;4840190;29;20102;-87
2022/08/29 09:20:24;;;;;;;7.65;5.68;;;32.20;60.40;;;;;;4836667;29;20049;-88
2022/08/29 09:23:17;;;;;;;7.20;5.57;;;32.20;60.70;;;;;;4841250;29;20079;-88
2022/08/29 09:25:43;;;;;;;8.70;5.43;;;32.40;59.70;;;;;;4840418;29;20173;-79
2022/08/29 09:28:09;;;;;;;9.20;5.38;;;32.20;60.20;;;;;;4840842;29;20486;-78
2022/08/29 09:30:37;;;;;;;8.57;6.30;;;32.20;60.70;;;;;;4839596;29;20141;-78
2022/08/29 09:33:15;;;;;;;6.47;5.45;;;32.50;60.10;;;;;;4849291;29;20061;-81
2022/08/29 09:35:50;;;;;;;6.90;5.07;;;32.90;59.50;;;;;;4914550;29;20531;-80
2022/08/29 09:38:22;;;;;;;8.75;5.40;;;32.80;59.20;;;;;;4914554;29;20392;-82
2022/08/29 09:40:57;;;;;;;7.30;5.60;;;32.90;59.30;;;;;;4898862;29;20060;-83
2022/08/29 09:43:38;;;;;;;12.68;5.72;;;33.20;59.10;;;;;;4899116;29;20040;-83
2022/08/29 09:46:24;;;;;;;6.40;5.35;;;33.40;58.70;;;;;;4915073;29;20048;-81
2022/08/29 09:49:12;;;;;;;7.95;5.32;;;33.70;58.40;;;;;;4959135;28;20030;-84
2022/08/29 09:51:40;;;;;;;6.40;5.15;;;33.90;58.60;;;;;;4975380;28;20022;-82
2022/08/29 09:54:22;;;;;;;5.90;5.28;;;33.90;57.20;;;;;;5029083;28;20105;-90
2022/08/29 09:56:54;;;;;;;5.95;5.10;;;33.90;58.30;;;;;;5092610;28;20040;-90
2022/08/29 09:59:41;;;;;;;7.22;5.32;;;33.80;57.80;;;;;;5092935;28;20089;-81
2022/08/29 10:02:19;;;;;;;6.47;5.75;;;33.80;58.10;;;;;;5075206;28;20471;-88
2022/08/29 10:04:48;;;;;;;8.98;5.72;;;33.80;58.60;;;;;;5078576;28;20469;-87
2022/08/29 10:07:28;;;;;;;10.43;5.03;;;33.80;57.60;;;;;;5079373;28;20020;-88
2022/08/29 10:09:59;;;;;;;8.73;5.40;;;33.90;57.90;;;;;;5078546;28;20046;-84
2022/08/29 10:12:37;;;;;;;6.53;5.00;;;34.10;58.40;;;;;;5078738;28;20028;-85
2022/08/29 10:15:09;;;;;;;8.63;4.82;;;34.30;57.30;;;;;;5078370;28;20447;-79
2022/08/29 10:20:41;;;;;;;6.85;5.05;;;34.30;56.40;;;;;;5096697;28;20070;-84
2022/08/29 10:23:29;;;;;;;7.97;4.88;;;34.30;56.20;;;;;;5096467;28;20024;-88
2022/08/29 10:25:58;;;;;;;6.70;4.72;;;34.20;56.50;;;;;;5077951;28;20060;-84
2022/08/29 10:28:53;;;;;;;5.90;4.82;;;34.20;57.00;;;;;;5077934;28;20024;-83
2022/08/29 10:31:36;;;;;;;5.70;5.10;;;34.20;56.40;;;;;;5096273;28;20034;-87
2022/08/29 10:34:35;;;;;;;5.78;4.43;;;34.20;56.90;;;;;;5096530;28;20047;-83
2022/08/29 10:37:18;;;;;;;7.13;4.97;;;34.30;56.40;;;;;;5078464;28;20141;-88
2022/08/29 10:40:07;;;;;;;6.53;4.95;;;34.20;56.90;;;;;;5078256;28;20046;-82
2022/08/29 10:42:36;;;;;;;6.35;5.00;;;34.00;57.00;;;;;;5077843;28;20058;-82
2022/08/29 10:45:13;;;;;;;7.22;4.57;;;34.20;57.40;;;;;;5095838;28;20023;-80
2022/08/29 10:47:45;;;;;;;7.00;4.68;;;34.20;56.80;;;;;;5095703;28;20048;-83
2022/08/29 10:50:40;;;;;;;5.82;5.13;;;34.40;57.60;;;;;;5096035;28;20028;-88
2022/08/29 10:53:13;;;;;;;7.25;5.10;;;34.30;56.70;;;;;;5077570;28;20034;-82
2022/08/29 10:55:54;;;;;;;7.40;5.10;;;34.60;56.90;;;;;;5095645;28;20054;-86
2022/08/29 10:58:38;;;;;;;8.18;4.85;;;34.80;56.60;;;;;;5095763;28;20051;-84
2022/08/29 11:01:21;;;;;;;7.20;4.20;;;35.00;56.40;;;;;;5095665;28;20032;-87
2022/08/29 11:03:57;;;;;;;5.90;4.60;;;34.90;56.30;;;;;;5078007;28;20454;-82
2022/08/29 11:06:32;;;;;;;5.55;4.35;;;35.00;56.50;;;;;;5095559;28;20031;-82
2022/08/29 11:09:20;;;;;;;7.05;4.50;;;34.90;56.30;;;;;;5077467;28;20479;-93
2022/08/29 11:12:03;;;;;;;6.00;4.40;;;34.70;56.70;;;;;;5077107;28;20486;-84
2022/08/29 11:14:41;;;;;;;5.25;4.35;;;34.60;56.20;;;;;;5095054;28;20034;-84
2022/08/29 11:17:10;;;;;;;10.65;4.30;;;34.40;56.20;;;;;;5095107;28;20048;-88
2022/08/29 11:19:41;;;;;;;6.60;4.15;;;34.40;56.90;;;;;;5094674;28;20028;-84
2022/08/29 11:22:34;;;;;;;9.13;4.45;;;34.30;56.70;;;;;;5095234;28;20024;-85
2022/08/29 11:25:16;;;;;;;5.60;4.18;;;34.40;56.80;;;;;;5095225;28;20020;-85
2022/08/29 11:28:15;;;;;;;7.07;4.40;;;34.10;57.40;;;;;;5076820;28;20024;-82
2022/08/29 11:31:01;;;;;;;6.50;4.43;;;34.00;57.10;;;;;;5077008;28;20051;-86
2022/08/29 11:33:45;;;;;;;5.18;4.20;;;34.10;56.90;;;;;;5077107;28;20024;-85
2022/08/29 11:36:52;;;;;;;6.57;4.60;;;34.30;57.20;;;;;;5095040;28;20059;-84
2022/08/29 11:39:51;;;;;;;5.85;4.00;;;34.40;56.20;;;;;;4977023;28;20053;-82
2022/08/29 11:42:22;;;;;;;4.68;4.07;;;34.50;56.00;;;;;;4993281;28;20030;-86
2022/08/29 11:44:51;;;;;;;6.05;4.60;;;34.30;56.40;;;;;;4976651;28;20417;-86
2022/08/29 11:47:38;;;;;;;7.50;4.72;;;34.30;56.00;;;;;;4977008;28;20133;-85
2022/08/29 11:50:15;;;;;;;6.20;4.43;;;34.40;56.30;;;;;;4976786;28;20147;-83
2022/08/29 11:53:00;;;;;;;6.30;4.25;;;34.60;56.40;;;;;;4976824;28;20072;-82
2022/08/29 11:55:38;;;;;;;5.75;4.45;;;34.70;56.00;;;;;;4993251;28;20031;-86
2022/08/29 11:58:13;;;;;;;7.68;4.43;;;34.80;56.40;;;;;;4976792;28;20046;-81
2022/08/29 12:00:43;;;;;;;6.20;4.72;;;34.80;55.60;;;;;;4992695;28;20038;-85
2022/08/29 12:03:38;;;;;;;;;;;34.70;55.30;;;;;;4977040;28;20101;-90
2022/08/29 12:06:09;;;;;;;6.50;4.38;;;34.80;55.80;;;;;;4968133;28;20012;-80
2022/08/29 12:09:00;;;;;;;8.13;4.00;;;34.80;55.50;;;;;;4976757;28;20033;-82
2022/08/29 12:12:04;;;;;;;4.75;4.05;;;34.80;55.00;;;;;;4935158;29;20055;-83
2022/08/29 12:14:30;;;;;;;5.35;4.32;;;34.80;55.60;;;;;;4918812;29;20504;-85
2022/08/29 12:17:03;;;;;;;6.13;4.25;;;34.60;54.40;;;;;;4934437;29;20058;-84
2022/08/29 12:19:50;;;;;;;5.43;4.40;;;34.60;55.00;;;;;;4934250;29;20433;-90
2022/08/29 12:22:46;;;;;;;5.65;4.40;;;34.60;55.40;;;;;;4934592;29;20139;-81
2022/08/29 12:25:30;;;;;;;6.50;4.25;;;34.50;54.90;;;;;;4934062;29;20487;-83
2022/08/29 12:28:02;;;;;;;5.63;4.10;;;34.40;55.30;;;;;;4934483;29;20031;-84
2022/08/29 12:30:36;;;;;;;4.78;4.03;;;34.70;55.30;;;;;;4934810;29;20152;-83
2022/08/29 12:33:20;;;;;;;6.85;4.18;;;35.10;55.10;;;;;;4934368;29;20039;-80
2022/08/29 12:35:54;;;;;;;5.30;4.75;;;35.50;55.10;;;;;;4934519;29;20039;-81
2022/08/29 12:38:23;;;;;;;7.85;4.30;;;35.60;53.60;;;;;;4934381;29;20455;-78
2022/08/29 12:41:11;;;;;;;5.22;4.32;;;35.60;53.60;;;;;;4934294;29;20034;-81
2022/08/29 12:43:43;;;;;;;5.32;4.20;;;35.40;53.20;;;;;;4933930;29;20046;-79
2022/08/29 12:46:33;;;;;;;4.97;4.43;;;35.40;54.10;;;;;;4934464;29;20027;-84
2022/08/29 12:49:47;;;;;;;5.85;4.00;;;35.40;54.20;;;;;;4974473;28;20493;-84
2022/08/29 12:52:23;;;;;;;5.53;4.07;;;35.50;54.40;;;;;;5055312;28;20024;-80
2022/08/29 12:54:50;;;;;;;7.32;3.90;;;35.40;53.80;;;;;;5093403;28;20027;-86
2022/08/29 12:57:19;;;;;;;5.13;3.90;;;35.30;53.90;;;;;;5075215;28;20071;-80
2022/08/29 12:59:51;;;;;;;4.95;4.25;;;35.40;54.00;;;;;;5075269;28;20165;-79
2022/08/29 13:02:33;;;;;;;5.43;3.45;;;35.60;53.60;;;;;;5075266;28;20375;-85
2022/08/29 13:04:59;;;;;;;8.18;4.10;;;35.70;53.00;;;;;;5093352;28;20028;-83
2022/08/29 13:07:27;;;;;;;6.88;3.80;;;35.70;53.20;;;;;;5075522;28;20078;-82